createdAt,value
2018-03-18T00:02:09.490Z,0.30
2018-03-18T00:04:42.028Z,0.20
2018-03-18T00:07:16.234Z,0.40
2018-03-18T00:09:48.863Z,0.20
2018-03-18T00:12:21.372Z,0.20
2018-03-18T00:14:54.688Z,0.20
2018-03-18T00:17:28.085Z,0.40
2018-03-18T00:20:01.424Z,0.30
2018-03-18T00:22:34.264Z,0.30
2018-03-18T00:25:06.951Z,0.20
2018-03-18T00:27:40.288Z,0.20
2018-03-18T00:30:14.427Z,0.20
2018-03-18T00:32:47.041Z,0.30
2018-03-18T00:35:21.138Z,0.30
2018-03-18T00:37:53.822Z,0.30
2018-03-18T00:40:26.198Z,0.30
2018-03-18T00:42:59.529Z,0.00
2018-03-18T00:45:32.021Z,0.00
2018-03-18T00:48:05.248Z,0.20
2018-03-18T00:50:38.467Z,0.10
2018-03-18T00:53:10.941Z,0.30
2018-03-18T00:55:44.205Z,0.00
2018-03-18T00:58:17.397Z,0.00
2018-03-18T01:00:50.377Z,0.20
2018-03-18T01:03:23.573Z,0.00
2018-03-18T01:05:56.052Z,0.30
2018-03-18T01:08:29.270Z,-0.10
2018-03-18T01:11:02.226Z,0.10
2018-03-18T01:13:34.684Z,0.20
2018-03-18T01:16:07.247Z,-0.10
2018-03-18T01:18:40.440Z,0.20
2018-03-18T01:21:13.888Z,0.20
2018-03-18T01:23:47.288Z,0.10
2018-03-18T01:26:20.026Z,0.10
2018-03-18T01:28:52.462Z,0.10
2018-03-18T01:31:26.580Z,0.20
2018-03-18T01:33:59.721Z,0.20
2018-03-18T01:36:32.347Z,0.20
2018-03-18T01:39:04.835Z,0.30
2018-03-18T01:41:38.338Z,0.20
2018-03-18T01:44:11.636Z,0.10
2018-03-18T01:46:44.007Z,0.30
2018-03-18T01:49:16.449Z,0.30
2018-03-18T01:51:50.553Z,0.20
2018-03-18T01:54:23.206Z,0.00
2018-03-18T01:56:55.703Z,0.00
2018-03-18T01:59:29.144Z,0.00
2018-03-18T02:02:02.611Z,0.00
2018-03-18T02:04:36.057Z,0.20
2018-03-18T02:07:09.045Z,0.10
2018-03-18T02:09:42.169Z,0.20
2018-03-18T02:12:15.265Z,0.10
2018-03-18T02:14:47.955Z,-0.10
2018-03-18T02:17:20.368Z,0.00
2018-03-18T02:19:52.909Z,-0.20
2018-03-18T02:22:26.104Z,-0.10
2018-03-18T02:24:58.808Z,-0.10
2018-03-18T02:27:31.978Z,-0.20
2018-03-18T02:30:05.431Z,-0.10
2018-03-18T02:32:38.729Z,-0.40
2018-03-18T02:35:11.527Z,-0.20
2018-03-18T02:37:45.513Z,-0.40
2018-03-18T02:40:19.023Z,-0.40
2018-03-18T02:42:52.329Z,-0.20
2018-03-18T02:45:26.379Z,-0.60
2018-03-18T02:47:59.499Z,-0.40
2018-03-18T02:50:31.949Z,-0.40
2018-03-18T02:53:04.540Z,-0.60
2018-03-18T02:55:37.934Z,-0.60
2018-03-18T02:58:10.324Z,-0.60
2018-03-18T03:00:43.890Z,-0.70
2018-03-18T03:03:18.053Z,-0.80
2018-03-18T03:05:51.441Z,-0.90
2018-03-18T03:08:24.041Z,-0.70
2018-03-18T03:10:56.461Z,-0.90
2018-03-18T03:13:29.849Z,-0.90
2018-03-18T03:16:03.937Z,-1.00
2018-03-18T03:18:36.698Z,-1.10
2018-03-18T03:21:10.677Z,-1.00
2018-03-18T03:23:43.289Z,-1.10
2018-03-18T03:26:15.746Z,-0.80
2018-03-18T03:28:48.229Z,-0.80
2018-03-18T03:31:21.663Z,-1.00
2018-03-18T03:33:54.935Z,-1.00
2018-03-18T03:36:27.430Z,-0.80
2018-03-18T03:39:00.628Z,-1.20
2018-03-18T03:41:33.208Z,-1.10
2018-03-18T03:44:06.697Z,-1.30
2018-03-18T03:46:39.928Z,-1.10
2018-03-18T03:49:13.345Z,-1.10
2018-03-18T03:51:45.931Z,-1.10
2018-03-18T03:54:19.313Z,-0.90
2018-03-18T03:56:52.606Z,-1.10
2018-03-18T03:59:25.831Z,-1.30
2018-03-18T04:01:59.005Z,-1.30
2018-03-18T04:04:31.431Z,-1.20
2018-03-18T04:07:04.180Z,-1.20
2018-03-18T04:09:36.674Z,-1.20
2018-03-18T04:12:10.722Z,-1.20
2018-03-18T04:14:43.525Z,-1.40
2018-03-18T04:17:15.971Z,-1.30
2018-03-18T04:19:50.126Z,-1.30
2018-03-18T04:22:23.905Z,-1.40
2018-03-18T04:24:57.390Z,-1.50
2018-03-18T04:27:30.028Z,-1.50
2018-03-18T04:30:02.461Z,-1.40
2018-03-18T04:32:35.825Z,-1.40
2018-03-18T04:35:08.293Z,-1.60
2018-03-18T04:37:40.894Z,-1.40
2018-03-18T04:40:14.036Z,-1.50
2018-03-18T04:42:47.512Z,-1.40
2018-03-18T04:45:20.488Z,-1.60
2018-03-18T04:47:52.932Z,-1.50
2018-03-18T04:50:25.344Z,-1.30
2018-03-18T04:52:58.800Z,-1.50
2018-03-18T04:55:32.248Z,-1.50
2018-03-18T04:58:05.576Z,-1.50
2018-03-18T05:00:39.689Z,-1.40
2018-03-18T05:03:12.374Z,-1.40
2018-03-18T05:05:44.974Z,-1.40
2018-03-18T05:08:18.349Z,-1.40
2018-03-18T05:10:51.573Z,-1.30
2018-03-18T05:13:24.503Z,-1.40
2018-03-18T05:15:57.724Z,-1.20
2018-03-18T05:18:30.257Z,-1.30
2018-03-18T05:21:02.685Z,-1.40
2018-03-18T05:23:36.143Z,-1.60
2018-03-18T05:26:08.569Z,-1.60
2018-03-18T05:28:42.032Z,-1.50
2018-03-18T05:31:16.143Z,-1.60
2018-03-18T05:33:48.935Z,-1.60
2018-03-18T05:36:21.408Z,-1.50
2018-03-18T05:38:53.939Z,-1.50
2018-03-18T05:41:27.287Z,-1.70
2018-03-18T05:43:59.879Z,-1.90
2018-03-18T05:46:33.293Z,-1.80
2018-03-18T05:49:06.729Z,-1.90
2018-03-18T05:51:40.691Z,-1.90
2018-03-18T05:54:14.259Z,-1.70
2018-03-18T05:56:46.843Z,-1.80
2018-03-18T05:59:19.359Z,-1.80
2018-03-18T06:01:52.595Z,-1.70
2018-03-18T06:04:25.372Z,-1.70
2018-03-18T06:06:58.656Z,-1.90
2018-03-18T06:09:31.132Z,-1.80
2018-03-18T06:12:04.340Z,-1.90
2018-03-18T06:14:37.629Z,-1.70
2018-03-18T06:17:10.093Z,-1.80
2018-03-18T06:19:42.856Z,-1.80
2018-03-18T06:22:16.690Z,-1.80
2018-03-18T06:24:49.612Z,-1.80
2018-03-18T06:27:23.017Z,-1.90
2018-03-18T06:29:55.629Z,-1.90
2018-03-18T06:32:28.754Z,-2.00
2018-03-18T06:35:01.491Z,-1.90
2018-03-18T06:37:34.796Z,-1.70
2018-03-18T06:40:07.317Z,-1.90
2018-03-18T06:42:40.618Z,-1.80
2018-03-18T06:45:13.013Z,-1.90
2018-03-18T06:47:46.209Z,-1.70
2018-03-18T06:50:19.665Z,-1.70
2018-03-18T06:52:52.942Z,-1.60
2018-03-18T06:55:25.425Z,-1.90
2018-03-18T06:57:59.395Z,-1.90
2018-03-18T07:00:32.107Z,-1.70
2018-03-18T07:03:05.435Z,-1.60
2018-03-18T07:05:37.882Z,-1.80
2018-03-18T07:08:10.420Z,-1.80
2018-03-18T07:10:43.042Z,-1.50
2018-03-18T07:13:15.609Z,-1.60
2018-03-18T07:15:48.050Z,-1.70
2018-03-18T07:18:21.296Z,-1.50
2018-03-18T07:20:54.066Z,-1.50
2018-03-18T07:23:27.406Z,-1.50
2018-03-18T07:26:00.118Z,-1.60
2018-03-18T07:28:32.602Z,-1.50
2018-03-18T07:31:04.956Z,-1.40
2018-03-18T07:33:37.923Z,-1.60
2018-03-18T07:36:10.908Z,-1.50
2018-03-18T07:38:43.485Z,-1.50
2018-03-18T07:41:17.577Z,-1.30
2018-03-18T07:43:50.188Z,-1.50
2018-03-18T07:46:22.734Z,-1.50
2018-03-18T07:48:56.102Z,-1.40
2018-03-18T07:51:28.572Z,-1.60
2018-03-18T07:54:02.019Z,-2.00
2018-03-18T07:56:35.403Z,-1.40
2018-03-18T07:59:07.857Z,-1.70
2018-03-18T08:01:40.331Z,-1.50
2018-03-18T08:04:13.514Z,-1.70
2018-03-18T08:06:46.229Z,-1.40
2018-03-18T08:09:20.341Z,-1.50
2018-03-18T08:11:53.038Z,-1.30
2018-03-18T08:14:25.612Z,-1.30
2018-03-18T08:16:58.957Z,-1.10
2018-03-18T08:19:31.403Z,-1.10
2018-03-18T08:22:04.865Z,-1.30
2018-03-18T08:24:37.251Z,-1.40
2018-03-18T08:27:09.717Z,-1.10
2018-03-18T08:29:43.906Z,-0.90
2018-03-18T08:32:17.340Z,-0.80
2018-03-18T08:34:50.075Z,-0.80
2018-03-18T08:37:23.507Z,-0.50
2018-03-18T08:39:55.903Z,-0.30
2018-03-18T08:42:28.806Z,-0.30
2018-03-18T08:45:01.435Z,-0.30
2018-03-18T08:47:34.319Z,-0.50
2018-03-18T08:50:07.553Z,-0.50
2018-03-18T08:52:41.024Z,-0.70
2018-03-18T08:55:14.926Z,-0.80
2018-03-18T08:57:47.704Z,-0.90
2018-03-18T09:00:20.966Z,-1.00
2018-03-18T09:02:53.373Z,-1.00
2018-03-18T09:05:25.884Z,-1.00
2018-03-18T09:07:59.202Z,-0.90
2018-03-18T09:10:32.497Z,-1.20
2018-03-18T09:13:05.793Z,-1.00
2018-03-18T09:15:39.098Z,-0.80
2018-03-18T09:18:11.838Z,-0.90
2018-03-18T09:20:44.461Z,-0.80
2018-03-18T09:23:18.431Z,-0.70
2018-03-18T09:25:51.311Z,-0.70
2018-03-18T09:28:25.358Z,-0.30
2018-03-18T09:30:58.101Z,-0.60
2018-03-18T09:33:31.450Z,-0.40
2018-03-18T09:36:04.787Z,-0.40
2018-03-18T09:38:37.305Z,-0.40
2018-03-18T09:41:11.474Z,-0.40
2018-03-18T09:43:44.235Z,-0.50
2018-03-18T09:46:16.665Z,-0.40
2018-03-18T09:48:49.998Z,-0.30
2018-03-18T09:51:22.441Z,-0.40
2018-03-18T09:53:54.954Z,-0.50
2018-03-18T09:56:27.905Z,-0.30
2018-03-18T09:59:00.464Z,-0.20
2018-03-18T10:01:33.220Z,-0.20
2018-03-18T10:04:06.421Z,0.00
2018-03-18T10:06:38.898Z,0.10
2018-03-18T10:09:11.452Z,0.40
2018-03-18T10:11:44.971Z,0.50
2018-03-18T10:14:17.362Z,0.50
2018-03-18T10:16:49.903Z,0.70
2018-03-18T10:19:22.502Z,0.70
2018-03-18T10:21:54.991Z,0.40
2018-03-18T10:24:27.436Z,0.60
2018-03-18T10:27:00.761Z,0.60
2018-03-18T10:29:33.544Z,0.50
2018-03-18T10:32:06.887Z,0.40
2018-03-18T10:34:40.053Z,0.40
2018-03-18T10:37:12.778Z,0.30
2018-03-18T10:39:46.033Z,0.50
2018-03-18T10:42:18.437Z,0.20
2018-03-18T10:44:50.999Z,0.30
2018-03-18T10:47:24.165Z,0.20
2018-03-18T10:49:56.808Z,0.20
2018-03-18T10:52:29.259Z,0.30
2018-03-18T10:55:01.670Z,0.40
2018-03-18T10:57:35.070Z,0.40
2018-03-18T11:00:09.205Z,0.20
2018-03-18T11:02:42.745Z,0.60
2018-03-18T11:05:15.446Z,0.60
2018-03-18T11:07:48.822Z,0.70
2018-03-18T11:10:22.222Z,0.90
2018-03-18T11:12:54.595Z,0.70
2018-03-18T11:15:28.899Z,0.60
2018-03-18T11:18:04.171Z,0.70
2018-03-18T11:20:37.959Z,0.70
2018-03-18T11:23:10.663Z,0.60
2018-03-18T11:25:44.964Z,0.80
2018-03-18T11:28:17.573Z,1.00
2018-03-18T11:30:50.969Z,1.00
2018-03-18T11:33:24.423Z,0.90
2018-03-18T11:35:57.803Z,0.80
2018-03-18T11:38:31.069Z,0.80
2018-03-18T11:41:03.757Z,0.70
2018-03-18T11:43:36.251Z,0.80
2018-03-18T11:46:08.898Z,1.00
2018-03-18T11:48:41.315Z,1.00
2018-03-18T11:51:13.948Z,0.80
2018-03-18T11:53:47.344Z,0.90
2018-03-18T11:56:19.837Z,0.90
2018-03-18T11:58:52.253Z,0.70
2018-03-18T12:01:25.429Z,1.00
2018-03-18T12:03:58.256Z,0.80
2018-03-18T12:06:30.788Z,1.00
2018-03-18T12:09:03.289Z,1.00
2018-03-18T12:11:36.504Z,1.30
2018-03-18T12:14:09.962Z,1.30
2018-03-18T12:16:42.450Z,1.40
2018-03-18T12:19:14.980Z,1.20
2018-03-18T12:21:47.592Z,1.30
2018-03-18T12:24:20.961Z,1.10
2018-03-18T12:26:53.424Z,1.20
2018-03-18T12:29:26.543Z,1.10
2018-03-18T12:32:00.068Z,1.10
2018-03-18T12:34:33.647Z,1.30
2018-03-18T12:37:07.126Z,1.00
2018-03-18T12:40:00.775Z,1.10
2018-03-18T12:42:52.228Z,1.10
2018-03-18T12:45:25.322Z,1.00
2018-03-18T12:47:58.623Z,1.10
2018-03-18T12:50:32.043Z,1.20
2018-03-18T12:53:08.890Z,0.90
2018-03-18T12:55:41.965Z,0.80
2018-03-18T12:58:15.181Z,0.50
2018-03-18T13:00:48.797Z,0.80
2018-03-18T13:03:22.297Z,0.70
2018-03-18T13:05:55.038Z,0.60
2018-03-18T13:08:27.461Z,0.80
2018-03-18T13:11:00.802Z,0.70
2018-03-18T13:13:33.745Z,0.90
2018-03-18T13:16:07.445Z,0.90
2018-03-18T13:18:42.852Z,0.70
2018-03-18T13:21:15.688Z,0.70
2018-03-18T13:23:49.156Z,0.80
2018-03-18T13:26:22.720Z,0.80
2018-03-18T13:28:55.580Z,0.70
2018-03-18T13:31:29.643Z,0.60
2018-03-18T13:34:02.418Z,0.80
2018-03-18T13:36:35.907Z,0.60
2018-03-18T13:39:08.396Z,0.60
2018-03-18T13:41:41.657Z,0.60
2018-03-18T13:44:14.227Z,0.50
2018-03-18T13:46:46.717Z,0.50
2018-03-18T13:49:20.874Z,0.50
2018-03-18T13:51:53.745Z,0.30
2018-03-18T13:54:27.109Z,0.40
2018-03-18T13:56:59.971Z,0.30
2018-03-18T13:59:33.136Z,0.40
2018-03-18T14:02:06.539Z,0.30
2018-03-18T14:04:39.877Z,0.30
2018-03-18T14:07:13.543Z,0.20
2018-03-18T14:09:46.431Z,0.10
2018-03-18T14:12:19.708Z,0.20
2018-03-18T14:14:52.263Z,0.10
2018-03-18T14:17:24.730Z,0.00
2018-03-18T14:19:58.103Z,0.10
2018-03-18T14:22:31.241Z,0.20
2018-03-18T14:25:04.882Z,-0.10
2018-03-18T14:27:37.605Z,0.00
2018-03-18T14:30:10.226Z,0.10
2018-03-18T14:32:42.697Z,-0.10
2018-03-18T14:35:15.894Z,0.10
2018-03-18T14:37:49.548Z,0.10
2018-03-18T14:40:22.401Z,0.20
2018-03-18T14:42:54.848Z,0.00
2018-03-18T14:45:27.372Z,0.20
2018-03-18T14:48:00.669Z,0.20
2018-03-18T14:50:33.961Z,0.10
2018-03-18T14:53:07.397Z,-0.10
2018-03-18T14:55:40.245Z,0.10
2018-03-18T14:58:13.440Z,0.00
2018-03-18T15:00:46.253Z,-0.10
2018-03-18T15:03:19.503Z,0.00
2018-03-18T15:05:53.554Z,-0.20
2018-03-18T15:08:26.028Z,-0.30
2018-03-18T15:10:58.500Z,-0.20
2018-03-18T15:13:30.935Z,-0.20
2018-03-18T15:16:04.360Z,-0.10
2018-03-18T15:18:37.637Z,0.10
2018-03-18T15:21:10.259Z,0.00
2018-03-18T15:23:43.466Z,0.10
2018-03-18T15:26:16.137Z,0.10
2018-03-18T15:28:48.512Z,-0.10
2018-03-18T15:31:22.709Z,-0.20
2018-03-18T15:33:55.242Z,-0.30
2018-03-18T15:36:28.435Z,-0.10
2018-03-18T15:39:00.996Z,-0.10
2018-03-18T15:41:33.432Z,0.00
2018-03-18T15:44:06.784Z,-0.40
2018-03-18T15:46:40.038Z,-0.10
2018-03-18T15:49:13.409Z,-0.30
2018-03-18T15:51:45.869Z,-0.30
2018-03-18T15:54:18.516Z,-0.20
2018-03-18T15:56:51.771Z,-0.40
2018-03-18T15:59:25.048Z,-0.20
2018-03-18T16:01:58.451Z,-0.40
2018-03-18T16:04:31.853Z,-0.30
2018-03-18T16:07:04.401Z,-0.40
2018-03-18T16:09:36.929Z,-0.50
2018-03-18T16:12:11.145Z,-0.60
2018-03-18T16:14:43.682Z,-0.60
2018-03-18T16:17:17.288Z,-0.50
2018-03-18T16:19:50.364Z,-0.50
2018-03-18T16:22:23.634Z,-0.50
2018-03-18T16:24:57.001Z,-0.70
2018-03-18T16:27:29.630Z,-0.60
2018-03-18T16:30:21.260Z,-0.50
2018-03-18T16:32:54.283Z,-0.60
2018-03-18T16:35:27.639Z,-0.50
2018-03-18T16:38:01.087Z,-0.70
2018-03-18T16:40:33.468Z,-0.50
2018-03-18T16:43:06.689Z,-0.80
2018-03-18T16:45:40.131Z,-0.80
2018-03-18T16:48:12.802Z,-0.80
2018-03-18T16:50:45.257Z,-0.60
2018-03-18T16:53:18.882Z,-0.70
2018-03-18T16:55:52.000Z,-0.80
2018-03-18T16:58:24.348Z,-0.70
2018-03-18T17:00:56.794Z,-0.70
2018-03-18T17:03:29.440Z,-0.70
2018-03-18T17:06:02.104Z,-0.60
2018-03-18T17:08:34.512Z,-0.80
2018-03-18T17:11:07.886Z,-0.90
2018-03-18T17:13:41.236Z,-0.90
2018-03-18T17:16:14.644Z,-0.80
2018-03-18T17:18:47.412Z,-0.80
2018-03-18T17:21:19.939Z,-0.80
2018-03-18T17:23:52.489Z,-0.90
2018-03-18T17:26:25.926Z,-0.80
2018-03-18T17:28:59.072Z,-0.80
2018-03-18T17:31:32.299Z,-0.80
2018-03-18T17:34:07.705Z,-0.70
2018-03-18T17:36:41.168Z,-1.00
2018-03-18T17:39:14.662Z,-1.10
2018-03-18T17:41:48.109Z,-0.90
2018-03-18T17:44:39.269Z,-1.00
2018-03-18T17:50:59.776Z,-0.90
2018-03-18T17:53:51.352Z,-1.00
2018-03-18T17:56:36.948Z,-1.30
2018-03-18T17:59:09.547Z,-1.10
2018-03-18T18:01:42.750Z,-1.30
2018-03-18T18:04:15.112Z,-1.20
2018-03-18T18:06:49.317Z,-1.20
2018-03-18T18:09:22.661Z,-1.00
2018-03-18T18:11:55.444Z,-1.20
2018-03-18T18:14:27.861Z,-1.00
2018-03-18T18:17:01.096Z,-1.10
2018-03-18T18:19:33.744Z,-1.20
2018-03-18T18:22:06.158Z,-1.00
2018-03-18T18:24:38.623Z,-1.00
2018-03-18T18:27:11.275Z,-1.00
2018-03-18T18:29:43.949Z,-1.30
2018-03-18T18:32:16.484Z,-1.20
2018-03-18T18:34:48.921Z,-1.30
2018-03-18T18:37:21.747Z,-1.40
2018-03-18T18:39:54.269Z,-1.10
2018-03-18T18:42:26.880Z,-1.10
2018-03-18T18:44:59.335Z,-1.00
2018-03-18T18:47:31.964Z,-1.10
2018-03-18T18:50:05.350Z,-1.20
2018-03-18T18:52:38.092Z,-1.80
2018-03-18T18:55:10.666Z,-1.40
2018-03-18T18:57:44.012Z,-1.50
2018-03-18T19:00:16.546Z,-1.40
2018-03-18T19:02:49.689Z,-1.20
2018-03-18T19:05:23.392Z,-1.30
2018-03-18T19:07:56.475Z,-1.40
2018-03-18T19:10:29.758Z,-1.10
2018-03-18T19:13:13.394Z,-1.10
2018-03-18T19:15:46.559Z,-1.30
2018-03-18T19:18:20.826Z,-1.30
2018-03-18T19:20:54.542Z,-1.30
2018-03-18T19:23:27.929Z,-1.30
2018-03-18T19:26:01.374Z,-1.20
2018-03-18T19:28:33.862Z,-1.30
2018-03-18T19:31:07.352Z,-1.30
2018-03-18T19:33:40.691Z,-1.40
2018-03-18T19:36:13.327Z,-1.20
2018-03-18T19:38:46.631Z,-1.50
2018-03-18T19:41:19.569Z,-1.40
2018-03-18T19:43:53.377Z,-1.30
2018-03-18T19:46:27.065Z,-1.40
2018-03-18T19:49:00.067Z,-1.30
2018-03-18T19:51:32.471Z,-1.20
2018-03-18T19:54:05.128Z,-1.20
2018-03-18T19:56:38.481Z,-1.50
2018-03-18T19:59:11.079Z,-1.30
2018-03-18T20:01:43.600Z,-1.50
2018-03-18T20:04:16.277Z,-1.50
2018-03-18T20:06:49.687Z,-1.60
2018-03-18T20:09:22.168Z,-1.50
2018-03-18T20:11:54.901Z,-1.40
2018-03-18T20:14:27.360Z,-1.70
2018-03-18T20:17:00.591Z,-1.50
2018-03-18T20:19:33.346Z,-1.60
2018-03-18T20:22:06.054Z,-1.60
2018-03-18T20:24:38.526Z,-1.60
2018-03-18T20:27:12.036Z,-1.30
2018-03-18T20:29:46.790Z,-1.50
2018-03-18T20:32:20.745Z,-1.40
2018-03-18T20:34:53.760Z,-1.40
2018-03-18T20:37:27.043Z,-1.60
2018-03-18T20:40:00.333Z,-1.70
2018-03-18T20:42:33.726Z,-1.60
2018-03-18T20:45:06.185Z,-1.70
2018-03-18T20:47:40.305Z,-1.70
2018-03-18T20:50:13.867Z,-1.50
2018-03-18T20:52:47.401Z,-1.60
2018-03-18T20:55:20.599Z,-1.60
2018-03-18T20:57:54.142Z,-1.80
2018-03-18T21:00:26.993Z,-1.80
2018-03-18T21:03:00.348Z,-1.80
2018-03-18T21:05:35.281Z,-1.80
2018-03-18T21:08:08.708Z,-1.80
2018-03-18T21:10:42.624Z,-1.90
2018-03-18T21:13:15.867Z,-2.00
2018-03-18T21:15:49.229Z,-1.70
2018-03-18T21:18:21.987Z,-1.80
2018-03-18T21:20:55.336Z,-1.80
2018-03-18T21:23:27.982Z,-1.70
2018-03-18T21:26:01.328Z,-1.70
2018-03-18T21:28:33.795Z,-1.70
2018-03-18T21:31:06.618Z,-1.70
2018-03-18T21:33:40.126Z,-1.80
2018-03-18T21:36:12.852Z,-1.80
2018-03-18T21:38:46.173Z,-1.70
2018-03-18T21:41:18.666Z,-1.90
2018-03-18T21:43:51.344Z,-1.70
2018-03-18T21:46:24.430Z,-1.90
2018-03-18T21:48:57.238Z,-1.90
2018-03-18T21:51:30.202Z,-2.00
2018-03-18T21:54:03.250Z,-1.90
2018-03-18T21:56:36.175Z,-1.80
2018-03-18T21:59:08.552Z,-1.70
2018-03-18T22:01:41.229Z,-1.90
2018-03-18T22:04:14.493Z,-1.90
2018-03-18T22:06:47.506Z,-2.00
2018-03-18T22:09:20.871Z,-1.90
2018-03-18T22:11:53.869Z,-1.90
2018-03-18T22:14:27.149Z,-1.90
2018-03-18T22:16:59.792Z,-1.80
2018-03-18T22:19:32.476Z,-1.70
2018-03-18T22:22:05.904Z,-1.70
2018-03-18T22:24:38.467Z,-1.70
2018-03-18T22:27:11.733Z,-1.70
2018-03-18T22:29:45.109Z,-1.90
2018-03-18T22:32:18.587Z,-1.90
2018-03-18T22:34:51.420Z,-1.90
2018-03-18T22:37:24.010Z,-1.70
2018-03-18T22:39:56.469Z,-1.70
2018-03-18T22:42:29.211Z,-1.90
2018-03-18T22:45:02.546Z,-1.90
2018-03-18T22:47:35.384Z,-1.80
2018-03-18T22:50:08.580Z,-1.90
2018-03-18T22:52:41.422Z,-2.00
2018-03-18T22:55:14.598Z,-2.00
2018-03-18T22:57:47.028Z,-1.80
2018-03-18T23:00:19.545Z,-2.00
2018-03-18T23:02:52.189Z,-1.80
2018-03-18T23:05:25.610Z,-2.00
2018-03-18T23:07:58.070Z,-1.80
2018-03-18T23:10:31.346Z,-2.10
2018-03-18T23:13:04.867Z,-1.90
2018-03-18T23:15:38.647Z,-1.90
2018-03-18T23:18:11.331Z,-1.70
2018-03-18T23:20:43.870Z,-1.90
2018-03-18T23:23:17.172Z,-1.80
2018-03-18T23:25:50.092Z,-1.90
2018-03-18T23:28:23.434Z,-1.90
2018-03-18T23:30:56.754Z,-1.90
2018-03-18T23:33:29.592Z,-1.90
2018-03-18T23:36:02.250Z,-2.10
2018-03-18T23:38:34.847Z,-1.90
2018-03-18T23:41:07.368Z,-2.00
2018-03-18T23:43:40.703Z,-2.10
2018-03-18T23:46:13.218Z,-2.40
2018-03-18T23:48:45.733Z,-2.10
2018-03-18T23:51:18.947Z,-2.20
2018-03-18T23:53:52.393Z,-2.20
2018-03-18T23:56:26.001Z,-2.30
2018-03-18T23:58:58.780Z,-2.20
